Time;durP1;ratioP1;P1;durP2;ratioP2;P2;SDS_P1;SDS_P2;PMS_P1;PMS_P2;Temp;Humidity;BMP_temperature;BMP_pressure;BME280_temperature;BME280_humidity;BME280_pressure;Samples;Min_cycle;Max_cycle;Signal;HPM_P1;HPM_P2
2022/10/01 00:01:48;;;;;;;;;5.25;2.25;;;;;27.52;100.00;101403.84;5019881;28;51546;-50
2022/10/01 00:04:36;;;;;;;;;4.00;2.50;;;;;27.50;100.00;101401.22;5020634;28;51198;-49
2022/10/01 00:07:21;;;;;;;;;7.25;2.25;;;;;27.48;100.00;101405.06;5020183;28;51468;-49
2022/10/01 00:10:07;;;;;;;;;2.25;2.00;;;;;27.45;100.00;101399.78;5019935;28;51343;-49
2022/10/01 00:12:52;;;;;;;;;5.00;2.25;;;;;27.45;100.00;101386.13;5002853;28;51179;-48
2022/10/01 00:15:40;;;;;;;;;4.00;4.00;;;;;27.48;100.00;101407.78;4979116;28;51072;-52
2022/10/01 00:18:25;;;;;;;;;2.75;1.75;;;;;27.48;100.00;101400.44;4980590;28;51307;-50
2022/10/01 00:21:13;;;;;;;;;1.25;1.25;;;;;27.51;100.00;101396.66;4980275;28;51276;-49
2022/10/01 00:24:00;;;;;;;;;2.75;2.75;;;;;27.50;100.00;101386.69;4979045;28;51137;-52
2022/10/01 00:26:45;;;;;;;;;1.75;1.75;;;;;27.48;100.00;101383.19;4975598;28;51277;-49
2022/10/01 00:29:30;;;;;;;;;3.00;3.00;;;;;27.48;100.00;101384.06;4980126;28;51343;-52
2022/10/01 00:32:15;;;;;;;;;1.75;1.75;;;;;27.48;100.00;101373.13;4980713;28;51463;-56
2022/10/01 00:35:01;;;;;;;;;5.75;2.00;;;;;27.49;100.00;101379.47;4979642;28;51169;-48
2022/10/01 00:37:50;;;;;;;;;6.50;3.00;;;;;27.47;100.00;101379.56;4980871;28;51190;-51
2022/10/01 00:40:35;;;;;;;;;6.50;2.00;;;;;27.44;100.00;101371.59;4977144;28;51150;-50
2022/10/01 00:43:25;;;;;;;;;1.00;1.00;;;;;27.45;100.00;101377.91;4979577;28;51286;-49
2022/10/01 00:46:20;;;;;;;;;6.00;2.00;;;;;27.43;100.00;101383.47;4978553;28;51065;-51
2022/10/01 00:49:17;;;;;;;;;6.50;2.25;;;;;27.43;100.00;101375.25;4978717;28;51099;-50
2022/10/01 00:52:05;;;;;;;;;4.00;2.00;;;;;27.43;100.00;101378.00;4976906;28;51151;-48
2022/10/01 00:55:19;;;;;;;;;3.25;2.50;;;;;27.46;100.00;101382.41;4979930;28;51170;-48
2022/10/01 00:58:04;;;;;;;;;7.00;1.75;;;;;27.47;100.00;101386.91;4980352;28;51206;-48
2022/10/01 01:00:50;;;;;;;;;5.25;2.75;;;;;27.48;100.00;101389.50;4980067;28;51136;-51
2022/10/01 01:03:35;;;;;;;;;1.50;1.00;;;;;27.47;100.00;101375.97;4976850;28;51197;-47
2022/10/01 01:06:20;;;;;;;;;5.00;1.50;;;;;27.48;100.00;101386.78;4980752;28;51619;-49
2022/10/01 01:09:05;;;;;;;;;6.00;1.50;;;;;27.45;100.00;101365.16;4979399;28;51145;-52
2022/10/01 01:11:52;;;;;;;;;5.75;2.00;;;;;27.45;100.00;101373.34;4981160;28;51218;-51
2022/10/01 01:15:01;;;;;;;;;5.00;2.00;;;;;27.43;100.00;101369.78;5004250;28;51426;-50
2022/10/01 01:18:08;;;;;;;;;6.75;3.00;;;;;27.44;100.00;101374.31;5004572;28;51495;-50
2022/10/01 01:21:38;;;;;;;;;6.00;3.75;;;;;27.46;100.00;101374.19;5018893;28;51158;-51
2022/10/01 01:24:49;;;;;;;;;5.75;3.50;;;;;27.43;100.00;101355.22;5020006;28;51238;-52
2022/10/01 01:27:39;;;;;;;;;7.00;4.00;;;;;27.46;100.00;101374.19;5004197;28;51276;-51
2022/10/01 01:30:25;;;;;;;;;4.75;4.00;;;;;27.44;100.00;101368.84;4987258;28;51256;-49
2022/10/01 01:33:16;;;;;;;;;5.50;3.00;;;;;27.46;100.00;101377.81;5004348;28;51096;-50
2022/10/01 01:36:05;;;;;;;;;4.25;3.00;;;;;27.44;100.00;101376.16;5003471;28;51486;-48
2022/10/01 01:38:58;;;;;;;;;4.25;4.00;;;;;27.43;100.00;101378.00;5019322;28;51212;-51
2022/10/01 01:41:49;;;;;;;;;8.75;3.00;;;;;27.40;100.00;101377.31;5018225;28;51182;-52
2022/10/01 01:44:38;;;;;;;;;4.25;2.75;;;;;27.34;100.00;101373.13;5004827;28;51159;-52
2022/10/01 01:47:25;;;;;;;;;5.50;3.00;;;;;27.35;100.00;101372.16;5005738;28;51200;-51
2022/10/01 01:50:11;;;;;;;;;5.00;4.00;;;;;27.32;100.00;101378.66;5005360;28;51230;-47
2022/10/01 01:52:56;;;;;;;;;2.00;2.00;;;;;27.26;100.00;101370.88;5005965;28;51224;-49
2022/10/01 01:55:42;;;;;;;;;4.00;2.00;;;;;27.28;100.00;101378.97;5003765;28;51151;-49
2022/10/01 01:58:27;;;;;;;;;2.75;2.25;;;;;27.29;100.00;101380.72;5004419;28;51491;-49
2022/10/01 02:01:30;;;;;;;;;3.75;1.50;;;;;27.30;100.00;101383.34;5006656;28;51064;-49
2022/10/01 02:04:44;;;;;;;;;4.00;2.00;;;;;27.27;100.00;101386.31;5018853;28;51894;-51
2022/10/01 02:07:51;;;;;;;;;3.00;2.75;;;;;27.27;100.00;101386.31;5007126;28;51151;-51
2022/10/01 02:10:45;;;;;;;;;2.00;2.00;;;;;27.29;100.00;101391.66;5016602;28;51562;-48
2022/10/01 02:13:49;;;;;;;;;4.75;2.25;;;;;27.30;100.00;101386.09;5014739;28;51043;-49
2022/10/01 02:16:41;;;;;;;;;4.00;2.00;;;;;27.31;100.00;101389.72;5003140;28;51433;-48
2022/10/01 02:20:07;;;;;;;;;3.00;2.00;;;;;27.30;100.00;101388.81;5018499;28;51047;-49
2022/10/01 02:23:06;;;;;;;;;5.00;3.00;;;;;27.28;100.00;101381.69;5012562;28;51096;-52
2022/10/01 02:25:57;;;;;;;;;8.00;1.75;;;;;27.33;100.00;101385.03;5001760;28;51209;-52
2022/10/01 02:28:42;;;;;;;;;3.25;3.25;;;;;27.31;100.00;101389.72;5007717;28;51249;-52
2022/10/01 02:31:28;;;;;;;;;3.25;3.25;;;;;27.31;100.00;101387.84;5005088;28;51260;-47
2022/10/01 02:34:16;;;;;;;;;2.50;2.00;;;;;27.33;100.00;101388.63;5003624;28;51262;-47
2022/10/01 02:37:03;;;;;;;;;2.00;1.25;;;;;27.32;100.00;101388.72;5002799;28;51895;-46
2022/10/01 02:39:49;;;;;;;;;2.50;2.00;;;;;27.34;100.00;101400.44;5003175;28;51231;-48
2022/10/01 02:42:36;;;;;;;;;2.00;1.75;;;;;27.30;100.00;101398.88;5006657;28;51073;-49
2022/10/01 02:45:22;;;;;;;;;5.00;1.50;;;;;27.33;100.00;101404.16;5006289;28;51102;-49
2022/10/01 02:48:10;;;;;;;;;3.25;1.25;;;;;27.34;100.00;101400.44;5004967;28;51274;-49
2022/10/01 02:51:01;;;;;;;;;7.00;2.00;;;;;27.32;100.00;101399.66;5005305;28;51536;-50
2022/10/01 02:53:53;;;;;;;;;3.00;2.25;;;;;27.32;100.00;101400.53;5003901;28;51044;-48
2022/10/01 02:59:42;;;;;;;;;7.00;3.00;;;;;27.31;100.00;101403.38;5020769;28;52165;-50
2022/10/01 03:02:28;;;;;;;;;5.00;2.50;;;;;27.32;100.00;101414.19;5014673;28;51564;-50
2022/10/01 03:05:14;;;;;;;;;4.25;2.75;;;;;27.34;100.00;101408.66;5004538;28;51057;-52
2022/10/01 03:07:59;;;;;;;;;4.50;2.00;;;;;27.30;100.00;101407.94;5018616;28;51252;-48
2022/10/01 03:10:44;;;;;;;;;2.75;2.00;;;;;27.33;100.00;101418.69;5018502;28;51138;-49
2022/10/01 03:13:29;;;;;;;;;3.50;2.00;;;;;27.32;100.00;101421.53;5019052;28;51159;-47
2022/10/01 03:16:13;;;;;;;;;5.50;2.00;;;;;27.34;100.00;101420.44;5017492;28;51131;-47
2022/10/01 03:18:57;;;;;;;;;2.00;1.00;;;;;27.35;100.00;101419.47;5018552;28;51441;-49
2022/10/01 03:21:42;;;;;;;;;4.75;1.25;;;;;27.37;100.00;101419.34;5016357;28;51160;-49
2022/10/01 03:24:27;;;;;;;;;4.25;3.00;;;;;27.35;100.00;101421.34;5018957;28;51252;-50
2022/10/01 03:27:11;;;;;;;;;2.00;1.00;;;;;27.36;100.00;101423.97;5003208;28;51124;-50
2022/10/01 03:29:56;;;;;;;;;5.25;2.50;;;;;27.35;100.00;101422.19;5017960;28;51180;-50
2022/10/01 03:32:41;;;;;;;;;4.75;3.75;;;;;27.34;100.00;101409.50;5018011;28;51110;-48
2022/10/01 03:35:25;;;;;;;;;4.75;3.75;;;;;27.36;100.00;101418.50;5015770;28;51091;-51
2022/10/01 03:38:10;;;;;;;;;3.75;3.75;;;;;27.38;100.00;101421.13;5018025;28;51189;-50
2022/10/01 03:40:55;;;;;;;;;2.00;1.00;;;;;27.35;100.00;101427.66;5017642;28;51475;-50
2022/10/01 03:43:39;;;;;;;;;4.75;3.25;;;;;27.36;100.00;101426.69;5017471;28;51468;-48
2022/10/01 03:46:25;;;;;;;;;7.00;4.00;;;;;27.39;100.00;101433.81;5015736;28;51091;-49
2022/10/01 03:49:09;;;;;;;;;4.50;4.25;;;;;27.38;100.00;101432.94;5015751;28;51343;-50
2022/10/01 03:51:55;;;;;;;;;7.00;4.75;;;;;27.44;100.00;101439.00;5017031;28;51149;-49
2022/10/01 03:54:39;;;;;;;;;4.75;4.00;;;;;27.43;100.00;101429.91;5017654;28;51170;-47
2022/10/01 03:57:24;;;;;;;;;6.75;4.00;;;;;27.42;100.00;101432.72;5017393;28;51492;-49
2022/10/01 04:00:09;;;;;;;;;5.00;3.50;;;;;27.41;100.00;101431.00;5016624;28;51449;-49
2022/10/01 04:02:53;;;;;;;;;9.75;5.00;;;;;27.37;100.00;101441.22;5018618;28;51182;-47
2022/10/01 04:05:38;;;;;;;;;7.75;4.25;;;;;27.37;100.00;101443.94;5017278;28;51526;-47
2022/10/01 04:08:23;;;;;;;;;8.25;3.50;;;;;27.38;100.00;101441.13;5002157;28;52025;-51
2022/10/01 04:11:08;;;;;;;;;7.50;3.75;;;;;27.38;100.00;101432.03;5017953;28;51099;-51
2022/10/01 04:13:52;;;;;;;;;2.50;1.25;;;;;27.37;100.00;101447.59;5018507;28;51215;-46
2022/10/01 04:16:37;;;;;;;;;3.25;1.75;;;;;27.33;100.00;101432.34;5003190;28;51416;-48
2022/10/01 04:19:22;;;;;;;;;6.75;4.50;;;;;27.31;100.00;101428.81;5017840;28;51249;-49
2022/10/01 04:22:06;;;;;;;;;5.00;3.00;;;;;27.31;100.00;101420.63;5018157;28;52042;-47
2022/10/01 04:24:52;;;;;;;;;4.00;3.25;;;;;27.30;100.00;101432.53;5017248;28;51218;-47
2022/10/01 04:27:40;;;;;;;;;3.25;2.00;;;;;27.29;100.00;101428.06;5018945;28;51425;-48
2022/10/01 04:30:30;;;;;;;;;6.00;5.75;;;;;27.30;100.00;101439.84;5005747;28;51143;-50
2022/10/01 04:33:16;;;;;;;;;7.00;4.25;;;;;27.18;100.00;101431.47;5018284;28;51956;-51
2022/10/01 04:36:00;;;;;;;;;11.25;5.00;;;;;27.27;100.00;101451.88;5013787;28;51338;-48
2022/10/01 04:38:46;;;;;;;;;8.00;5.25;;;;;27.22;100.00;101446.69;5018061;28;51496;-50
2022/10/01 04:41:30;;;;;;;;;6.00;4.50;;;;;27.19;100.00;101446.03;5018934;28;51139;-48
2022/10/01 04:44:15;;;;;;;;;2.00;1.50;;;;;27.24;100.00;101451.19;5020194;28;51519;-50
2022/10/01 04:47:00;;;;;;;;;6.75;5.00;;;;;27.20;100.00;101453.22;5017160;28;51358;-49
2022/10/01 04:49:45;;;;;;;;;9.00;5.75;;;;;27.14;100.00;101451.78;5005931;28;51235;-48
2022/10/01 04:52:30;;;;;;;;;4.25;4.25;;;;;27.23;100.00;101469.41;5020145;28;51068;-46
2022/10/01 04:55:16;;;;;;;;;5.25;4.00;;;;;27.28;100.00;101472.75;5007061;28;51132;-51
2022/10/01 04:58:00;;;;;;;;;7.50;4.00;;;;;27.25;100.00;101472.94;5015440;28;51325;-47
2022/10/01 05:00:45;;;;;;;;;4.25;3.25;;;;;27.27;100.00;101476.47;5020899;28;51203;-47
2022/10/01 05:03:30;;;;;;;;;3.00;2.00;;;;;27.27;100.00;101490.13;5020455;28;51076;-51
2022/10/01 05:06:15;;;;;;;;;3.75;3.50;;;;;27.26;100.00;101491.09;5017179;28;51215;-48
2022/10/01 05:09:00;;;;;;;;;4.00;2.50;;;;;27.26;100.00;101507.50;5019505;28;51562;-50
2022/10/01 05:11:45;;;;;;;;;7.75;2.25;;;;;27.23;100.00;101510.41;5019000;28;51116;-48
2022/10/01 05:14:30;;;;;;;;;3.00;3.00;;;;;27.23;100.00;101515.88;5000854;28;51157;-49
2022/10/01 05:17:16;;;;;;;;;4.75;4.25;;;;;27.18;100.00;101507.97;4997894;28;51082;-51
2022/10/01 05:20:02;;;;;;;;;5.25;1.50;;;;;27.19;100.00;101514.31;4998700;28;51596;-48
2022/10/01 05:22:48;;;;;;;;;7.50;3.00;;;;;27.17;100.00;101510.78;4997766;28;51479;-47
2022/10/01 05:25:33;;;;;;;;;3.75;3.00;;;;;27.17;100.00;101519.00;5000636;28;51241;-48
2022/10/01 05:28:18;;;;;;;;;4.50;4.00;;;;;27.18;100.00;101516.16;4999286;28;51193;-47
2022/10/01 05:31:03;;;;;;;;;7.75;5.00;;;;;27.19;100.00;101517.03;4997997;28;51185;-49
2022/10/01 05:33:48;;;;;;;;;4.75;3.50;;;;;27.21;100.00;101523.28;4998929;28;51878;-50
2022/10/01 05:36:32;;;;;;;;;3.00;3.00;;;;;27.21;100.00;101518.69;4998619;28;51367;-51
2022/10/01 05:39:16;;;;;;;;;5.50;2.75;;;;;27.26;100.00;101514.78;4999108;28;51303;-48
2022/10/01 05:42:04;;;;;;;;;4.75;3.50;;;;;27.29;100.00;101531.00;5000939;28;51067;-49
2022/10/01 05:44:48;;;;;;;;;5.25;4.75;;;;;27.27;100.00;101527.47;5001417;28;51181;-48
2022/10/01 05:47:33;;;;;;;;;6.50;4.00;;;;;27.20;100.00;101518.78;5001719;28;51119;-48
2022/10/01 05:50:17;;;;;;;;;5.75;2.75;;;;;27.15;100.00;101527.25;5001399;28;51120;-46
2022/10/01 05:53:03;;;;;;;;;4.75;4.50;;;;;27.23;100.00;101537.72;4999587;28;51137;-48
2022/10/01 05:55:47;;;;;;;;;6.00;3.00;;;;;27.26;100.00;101537.53;5001108;28;51111;-50
2022/10/01 05:58:32;;;;;;;;;4.75;4.75;;;;;27.30;100.00;101540.97;5001521;28;51182;-46
2022/10/01 06:01:17;;;;;;;;;6.00;4.50;;;;;27.31;100.00;101538.13;5001467;28;51499;-51
2022/10/01 06:04:02;;;;;;;;;9.25;4.00;;;;;27.34;100.00;101546.13;5000883;28;51105;-49
2022/10/01 06:06:47;;;;;;;;;2.50;2.50;;;;;27.37;100.00;101542.31;5000115;28;51127;-47
2022/10/01 06:09:31;;;;;;;;;10.75;2.75;;;;;27.38;100.00;101552.28;5001324;28;51175;-52
2022/10/01 06:12:16;;;;;;;;;3.25;1.00;;;;;27.39;100.00;101543.13;5001208;28;51480;-49
2022/10/01 06:15:01;;;;;;;;;6.50;4.00;;;;;27.36;100.00;101549.66;5016050;28;51178;-48
2022/10/01 06:17:46;;;;;;;;;5.75;4.75;;;;;27.32;100.00;101545.34;5017688;28;51203;-51
2022/10/01 06:20:30;;;;;;;;;5.00;5.00;;;;;27.33;100.00;101547.09;5020561;28;51539;-47
2022/10/01 06:23:14;;;;;;;;;5.50;5.00;;;;;27.36;100.00;101543.28;5020478;28;51185;-49
2022/10/01 06:26:00;;;;;;;;;7.00;5.00;;;;;27.47;100.00;101554.47;5019057;28;51201;-48
2022/10/01 06:28:49;;;;;;;;;10.50;5.00;;;;;27.60;100.00;101562.81;5017373;28;51131;-50
2022/10/01 06:31:33;;;;;;;;;6.00;4.75;;;;;27.73;100.00;101557.44;5013977;28;51188;-43
2022/10/01 06:34:18;;;;;;;;;8.25;4.75;;;;;27.92;100.00;101573.56;5019645;28;51129;-42
2022/10/01 06:37:03;;;;;;;;;6.75;6.75;;;;;28.41;100.00;101574.97;5005816;28;51538;-43
2022/10/01 06:39:47;;;;;;;;;5.50;5.50;;;;;29.25;100.00;101571.22;5009047;28;51162;-41
2022/10/01 06:42:32;;;;;;;;;3.50;3.00;;;;;30.18;100.00;101578.38;5005054;28;51138;-45
2022/10/01 06:45:17;;;;;;;;;4.50;2.75;;;;;31.11;100.00;101568.69;5016813;28;51700;-42
2022/10/01 06:48:02;;;;;;;;;7.00;4.50;;;;;32.13;100.00;101550.47;5017893;28;51147;-47
2022/10/01 06:50:49;;;;;;;;;7.50;4.50;;;;;32.13;100.00;101541.34;5018050;28;51468;-42
2022/10/01 06:53:33;;;;;;;;;6.00;4.00;;;;;31.77;100.00;101549.75;5019327;28;51448;-43
2022/10/01 06:56:18;;;;;;;;;5.00;3.00;;;;;31.34;100.00;101540.28;5002330;28;51194;-41
2022/10/01 06:59:03;;;;;;;;;3.00;3.00;;;;;31.05;100.00;101561.81;5016781;28;51149;-44
2022/10/01 07:01:52;;;;;;;;;3.75;2.00;;;;;30.95;100.00;101563.53;5017040;28;51133;-44
2022/10/01 07:04:37;;;;;;;;;4.75;1.75;;;;;31.60;100.00;101567.59;5013293;28;51209;-43
2022/10/01 07:07:21;;;;;;;;;2.75;2.75;;;;;33.19;100.00;101549.88;5018978;28;51226;-44
2022/10/01 07:10:08;;;;;;;;;4.75;3.75;;;;;34.41;100.00;101527.13;5015905;28;51346;-41
2022/10/01 07:12:53;;;;;;;;;2.75;2.25;;;;;34.93;100.00;101501.13;5019506;28;51097;-42
2022/10/01 07:15:38;;;;;;;;;2.75;2.75;;;;;34.68;100.00;101514.47;5019256;28;51442;-41
2022/10/01 07:18:22;;;;;;;;;4.50;2.00;;;;;35.26;100.00;101512.69;5018791;28;51280;-41
2022/10/01 07:21:07;;;;;;;;;3.50;1.75;;;;;36.42;100.00;101504.94;5010873;28;51194;-40
2022/10/01 07:23:51;;;;;;;;;2.75;2.75;;;;;37.80;100.00;101497.97;5017760;28;51231;-41
2022/10/01 07:26:36;;;;;;;;;2.25;1.00;;;;;39.02;100.00;101503.09;5017956;28;51040;-41
2022/10/01 07:29:22;;;;;;;;;0.00;0.00;;;;;39.93;100.00;101506.56;5017049;28;51133;-44
2022/10/01 07:32:09;;;;;;;;;4.00;2.00;;;;;39.46;100.00;101504.63;5017694;28;51445;-38
2022/10/01 07:34:53;;;;;;;;;5.25;2.50;;;;;38.89;100.00;101517.56;5017187;28;51126;-40
2022/10/01 07:37:38;;;;;;;;;5.75;5.50;;;;;39.17;100.00;101522.75;5018363;28;51203;-43
2022/10/01 07:40:22;;;;;;;;;3.00;1.75;;;;;39.94;100.00;101516.66;5018857;28;51079;-39
2022/10/01 07:43:08;;;;;;;;;3.00;1.00;;;;;39.34;100.00;101518.03;5017739;28;51102;-40
2022/10/01 07:45:56;;;;;;;;;5.00;1.75;;;;;37.75;100.00;101536.47;5018753;28;51169;-41
2022/10/01 07:48:41;;;;;;;;;2.25;2.25;;;;;36.34;100.00;101557.47;5015162;28;51244;-42
2022/10/01 07:51:26;;;;;;;;;1.25;1.00;;;;;35.42;100.00;101570.22;5017867;28;52083;-41
2022/10/01 07:54:11;;;;;;;;;1.50;1.50;;;;;34.88;100.00;101582.56;5018855;28;51454;-43
2022/10/01 07:56:56;;;;;;;;;1.25;1.25;;;;;34.27;100.00;101601.06;5018634;28;51135;-41
2022/10/01 07:59:40;;;;;;;;;1.00;1.00;;;;;33.58;100.00;101610.00;5017525;28;51340;-39
2022/10/01 08:02:25;;;;;;;;;3.00;2.00;;;;;33.22;100.00;101624.09;5016969;28;51234;-38
2022/10/01 08:05:16;;;;;;;;;3.50;1.25;;;;;33.32;100.00;101632.44;5017708;28;51372;-43
2022/10/01 08:08:04;;;;;;;;;1.00;1.00;;;;;33.73;100.00;101636.25;5018326;28;51197;-39
2022/10/01 08:10:49;;;;;;;;;6.00;2.00;;;;;33.41;100.00;101615.13;5017690;28;51293;-43
2022/10/01 08:13:34;;;;;;;;;1.00;1.00;;;;;33.25;100.00;101640.38;5018154;28;51227;-42
2022/10/01 08:16:18;;;;;;;;;2.75;2.00;;;;;33.26;100.00;101650.41;5017485;28;51134;-43
2022/10/01 08:19:03;;;;;;;;;3.50;1.25;;;;;33.45;100.00;101651.59;5022794;28;51233;-37
2022/10/01 08:21:47;;;;;;;;;3.00;2.00;;;;;33.44;100.00;101653.44;5020656;28;52058;-44
2022/10/01 08:24:36;;;;;;;;;4.00;1.25;;;;;33.40;100.00;101651.09;5004677;28;51283;-38
2022/10/01 08:27:23;;;;;;;;;4.75;2.75;;;;;33.17;100.00;101657.56;5022838;28;51186;-41
2022/10/01 08:30:08;;;;;;;;;1.50;1.00;;;;;33.27;100.00;101643.00;5022776;28;51487;-38
2022/10/01 08:32:54;;;;;;;;;3.25;3.25;;;;;33.42;100.00;101646.31;5020050;28;51106;-39
2022/10/01 08:35:42;;;;;;;;;1.00;0.75;;;;;33.58;100.00;101643.09;5020001;28;51297;-41
2022/10/01 08:38:27;;;;;;;;;5.25;5.25;;;;;33.76;100.00;101649.75;5018639;28;51225;-40
2022/10/01 08:41:28;;;;;;;;;0.00;0.00;;;;;33.90;100.00;101650.44;5017450;28;51356;-39
2022/10/01 08:44:20;;;;;;;;;2.00;1.00;;;;;33.77;100.00;101643.22;5020322;28;51290;-38
2022/10/01 08:47:14;;;;;;;;;6.75;3.00;;;;;33.72;100.00;101658.44;5006792;28;51146;-42
2022/10/01 08:50:07;;;;;;;;;3.75;2.25;;;;;33.62;100.00;101656.50;5019920;28;51186;-40
2022/10/01 08:52:55;;;;;;;;;4.25;1.25;;;;;33.57;100.00;101652.38;5021642;28;51169;-41
2022/10/01 08:55:40;;;;;;;;;6.75;2.00;;;;;33.51;100.00;101654.69;4998407;28;51352;-40
2022/10/01 08:58:31;;;;;;;;;5.50;1.50;;;;;33.46;100.00;101656.09;5006353;28;51085;-41
2022/10/01 09:01:16;;;;;;;;;5.00;4.00;;;;;33.31;100.00;101666.56;5000630;28;51507;-38
2022/10/01 09:04:00;;;;;;;;;4.00;4.00;;;;;32.91;100.00;101660.66;5020490;28;51314;-38
2022/10/01 09:06:48;;;;;;;;;3.00;2.00;;;;;32.60;100.00;101673.38;5017688;28;51120;-40
2022/10/01 09:09:44;;;;;;;;;11.00;7.25;;;;;32.41;100.00;101677.66;5004561;28;51131;-39
2022/10/01 09:12:49;;;;;;;;;11.50;9.75;;;;;32.46;100.00;101671.75;5019414;28;51546;-41
2022/10/01 09:15:51;;;;;;;;;11.50;8.50;;;;;33.06;100.00;101683.31;5018383;28;51114;-40
2022/10/01 09:19:04;;;;;;;;;14.25;9.00;;;;;33.76;100.00;101673.72;5013937;28;51297;-43
2022/10/01 09:22:02;;;;;;;;;5.25;3.50;;;;;34.37;100.00;101666.50;5020062;28;51468;-40
2022/10/01 09:25:26;;;;;;;;;3.75;2.25;;;;;34.72;100.00;101655.00;5018790;28;51218;-41
2022/10/01 09:28:15;;;;;;;;;1.75;1.75;;;;;35.05;100.00;101655.66;4979049;28;51159;-41
2022/10/01 09:31:15;;;;;;;;;7.75;5.50;;;;;35.05;100.00;101652.91;4995749;28;51264;-40
2022/10/01 09:34:15;;;;;;;;;4.00;4.00;;;;;34.76;100.00;101644.56;4991969;28;51100;-42
2022/10/01 09:37:31;;;;;;;;;4.75;3.75;;;;;34.68;100.00;101660.94;5003996;28;51440;-42
2022/10/01 09:40:35;;;;;;;;;5.25;2.75;;;;;34.57;100.00;101664.72;5006795;28;51036;-39
2022/10/01 09:43:26;;;;;;;;;2.00;2.00;;;;;34.55;100.00;101664.84;4992843;28;51075;-40
2022/10/01 09:46:15;;;;;;;;;10.75;7.25;;;;;34.52;100.00;101667.91;5000743;28;51375;-40
2022/10/01 09:49:47;;;;;;;;;10.50;10.25;;;;;34.54;100.00;101652.06;5003008;28;51210;-41
2022/10/01 09:52:37;;;;;;;;;8.75;5.00;;;;;34.68;100.00;101652.66;5013889;28;51138;-41
2022/10/01 09:55:35;;;;;;;;;8.50;4.75;;;;;34.78;100.00;101645.25;5018021;28;51246;-42
2022/10/01 09:58:23;;;;;;;;;4.25;4.25;;;;;35.04;100.00;101633.69;5004528;28;51092;-38
2022/10/01 10:01:19;;;;;;;;;10.25;5.50;;;;;34.93;100.00;101642.97;4996124;28;51165;-38
2022/10/01 10:04:04;;;;;;;;;4.75;4.75;;;;;34.76;100.00;101633.50;5015129;28;51043;-38
2022/10/01 10:06:50;;;;;;;;;5.00;2.25;;;;;34.79;100.00;101629.56;5016135;28;51177;-40
2022/10/01 10:09:35;;;;;;;;;10.00;6.00;;;;;34.83;100.00;101629.13;5004901;28;51466;-38
2022/10/01 10:12:30;;;;;;;;;4.50;2.75;;;;;34.87;100.00;101621.41;5020363;28;51160;-39
2022/10/01 10:15:20;;;;;;;;;5.25;3.75;;;;;34.75;100.00;101616.03;5019970;28;51171;-42
2022/10/01 10:18:15;;;;;;;;;4.00;2.25;;;;;34.69;100.00;101618.47;5005627;28;51134;-38
2022/10/01 10:21:06;;;;;;;;;1.00;1.00;;;;;34.67;100.00;101615.88;4995212;28;51454;-41
2022/10/01 10:23:52;;;;;;;;;6.25;2.75;;;;;34.69;100.00;101605.56;5007087;28;51130;-39
2022/10/01 10:26:39;;;;;;;;;7.50;4.75;;;;;34.70;100.00;101596.25;5018213;28;52460;-41
2022/10/01 10:29:32;;;;;;;;;5.50;4.25;;;;;34.75;100.00;101587.53;5019063;28;51134;-42
2022/10/01 10:32:27;;;;;;;;;6.75;5.25;;;;;34.71;100.00;101575.00;5003863;28;51023;-42
2022/10/01 10:35:17;;;;;;;;;6.25;5.75;;;;;34.71;100.00;101581.38;5015473;28;51473;-40
2022/10/01 10:38:02;;;;;;;;;17.50;14.75;;;;;34.79;100.00;101582.56;4995927;28;51176;-40
2022/10/01 10:40:46;;;;;;;;;5.50;4.50;;;;;34.75;100.00;101573.69;5014726;28;51340;-39
2022/10/01 10:43:34;;;;;;;;;4.50;4.50;;;;;34.68;100.00;101569.75;5014692;28;51183;-39
2022/10/01 10:46:30;;;;;;;;;5.25;3.00;;;;;34.27;100.00;101567.91;5012217;28;51544;-39
2022/10/01 10:49:28;;;;;;;;;1.25;0.00;;;;;34.04;100.00;101574.66;5018095;28;51267;-39
2022/10/01 10:52:35;;;;;;;;;2.00;1.75;;;;;34.10;100.00;101566.69;5018358;28;51191;-41
2022/10/01 10:55:38;;;;;;;;;1.00;1.00;;;;;34.14;100.00;101554.38;5018310;28;51038;-38
2022/10/01 10:58:25;;;;;;;;;2.50;1.50;;;;;34.13;100.00;101560.91;5002939;28;51079;-38
2022/10/01 11:01:17;;;;;;;;;7.75;6.25;;;;;34.09;100.00;101562.19;5003910;28;51069;-37
2022/10/01 11:04:02;;;;;;;;;4.25;3.50;;;;;34.08;100.00;101554.03;5014255;28;51186;-39
2022/10/01 11:06:57;;;;;;;;;0.75;0.50;;;;;33.98;100.00;101546.59;5019034;28;51107;-37
2022/10/01 11:09:56;;;;;;;;;2.50;2.00;;;;;33.76;100.00;101544.88;5001319;28;51138;-40
2022/10/01 11:13:02;;;;;;;;;5.00;1.25;;;;;33.45;100.00;101547.63;5016216;28;51212;-42
2022/10/01 11:16:07;;;;;;;;;1.75;0.75;;;;;33.29;100.00;101547.22;5018944;28;51285;-37
2022/10/01 11:19:10;;;;;;;;;1.50;1.00;;;;;33.33;100.00;101545.94;5002506;28;51201;-39
2022/10/01 11:22:17;;;;;;;;;1.25;1.25;;;;;33.20;100.00;101530.47;5002407;28;51188;-39
2022/10/01 11:25:05;;;;;;;;;1.50;0.50;;;;;32.96;100.00;101533.50;5002937;28;51115;-37
2022/10/01 11:27:58;;;;;;;;;6.50;4.25;;;;;32.82;100.00;101545.69;5014932;28;51230;-38
2022/10/01 11:31:09;;;;;;;;;2.00;2.00;;;;;32.92;100.00;101535.63;5003236;28;51131;-37
2022/10/01 11:34:09;;;;;;;;;7.25;6.50;;;;;32.99;100.00;101533.22;5012322;28;51078;-40
2022/10/01 11:37:12;;;;;;;;;6.50;3.75;;;;;32.81;100.00;101529.31;5018502;28;51237;-40
2022/10/01 11:40:00;;;;;;;;;13.25;11.75;;;;;32.73;100.00;101538.19;5017541;28;51467;-39
2022/10/01 11:42:46;;;;;;;;;5.00;3.75;;;;;32.68;100.00;101538.59;5017891;28;51258;-40
2022/10/01 11:45:35;;;;;;;;;5.50;4.50;;;;;32.42;100.00;101525.16;5018821;28;51354;-36
2022/10/01 11:48:30;;;;;;;;;6.50;6.50;;;;;32.30;100.00;101534.47;5003149;28;51487;-39
2022/10/01 11:51:32;;;;;;;;;5.75;2.50;;;;;32.34;100.00;101535.06;5003078;28;51203;-38
2022/10/01 11:54:23;;;;;;;;;5.50;4.00;;;;;32.24;100.00;101523.94;5014412;28;51554;-38
2022/10/01 12:00:16;;;;;;;;;0.50;0.50;;;;;32.22;100.00;101528.69;5017569;28;51210;-37
2022/10/01 12:03:01;;;;;;;;;5.25;4.50;;;;;32.13;100.00;101530.31;5016668;28;51272;-39
2022/10/01 12:05:46;;;;;;;;;5.75;5.75;;;;;32.13;100.00;101519.31;5015017;28;51159;-39
2022/10/01 12:08:35;;;;;;;;;7.50;4.25;;;;;32.05;100.00;101519.94;5008950;28;51282;-37
2022/10/01 12:11:29;;;;;;;;;10.50;5.25;;;;;31.88;100.00;101513.09;5001829;28;51486;-40
2022/10/01 12:14:25;;;;;;;;;11.25;5.50;;;;;31.83;100.00;101509.84;5018210;28;51024;-39
2022/10/01 12:17:27;;;;;;;;;4.75;4.75;;;;;31.79;100.00;101505.59;5014867;28;51186;-39
2022/10/01 12:20:27;;;;;;;;;3.50;2.00;;;;;31.71;100.00;101492.47;5003767;28;51148;-40
2022/10/01 12:23:31;;;;;;;;;0.75;0.75;;;;;31.76;100.00;101492.97;4998482;28;51407;-38
2022/10/01 12:26:42;;;;;;;;;5.00;5.00;;;;;31.83;100.00;101482.34;5018808;28;51055;-38
2022/10/01 12:29:26;;;;;;;;;3.00;3.00;;;;;32.03;100.00;101490.81;5003318;28;51084;-40
2022/10/01 12:32:38;;;;;;;;;7.00;3.00;;;;;32.15;100.00;101476.03;5005760;28;51475;-40
2022/10/01 12:35:35;;;;;;;;;5.00;4.00;;;;;32.19;100.00;101474.75;5014648;28;51482;-40
2022/10/01 12:38:22;;;;;;;;;3.50;3.50;;;;;32.45;100.00;101468.94;5013905;28;51408;-36
2022/10/01 12:41:41;;;;;;;;;4.00;2.00;;;;;32.63;100.00;101460.09;5014092;28;51114;-39
2022/10/01 12:44:50;;;;;;;;;3.75;2.25;;;;;32.67;100.00;101454.19;5016263;28;51130;-38
2022/10/01 12:47:42;;;;;;;;;8.00;5.25;;;;;32.76;100.00;101463.53;5017949;28;51206;-41
2022/10/01 12:50:50;;;;;;;;;9.50;8.25;;;;;32.82;100.00;101449.25;5013406;28;51500;-41
2022/10/01 12:53:43;;;;;;;;;1.25;1.25;;;;;32.87;100.00;101454.34;5014193;28;51132;-41
2022/10/01 12:56:39;;;;;;;;;32.75;30.00;;;;;32.72;100.00;101445.50;5014241;28;50981;-40
2022/10/01 12:59:58;;;;;;;;;14.50;8.75;;;;;32.97;100.00;101432.38;5001863;28;51372;-39
2022/10/01 13:02:48;;;;;;;;;9.50;6.00;;;;;33.28;100.00;101435.16;5020288;28;51192;-38
2022/10/01 13:05:57;;;;;;;;;4.50;3.50;;;;;33.36;100.00;101419.69;5017536;28;51322;-41
2022/10/01 13:08:51;;;;;;;;;5.50;3.50;;;;;33.25;100.00;101418.88;5019307;28;51233;-41